Time;durP1;ratioP1;P1;durP2;ratioP2;P2;SDS_P1;SDS_P2;PMS_P1;PMS_P2;Temp;Humidity;BMP_temperature;BMP_pressure;BME280_temperature;BME280_humidity;BME280_pressure;Samples;Min_cycle;Max_cycle;Signal;HPM_P1;HPM_P2
2022/09/04 20:40:35;;;;;;;;;18.40;16.40;;;;;19.06;80.61;99948.22;5120866;27;13382;-70
2022/09/04 20:43:21;;;;;;;;;12.80;12.80;;;;;19.40;78.30;99944.59;5104437;28;8839;-71
2022/09/04 20:46:06;;;;;;;;;14.00;13.40;;;;;19.78;76.02;99936.41;5091634;28;8885;-71
2022/09/04 20:49:03;;;;;;;;;16.00;15.60;;;;;20.23;73.66;99941.09;5094398;28;8874;-72
2022/09/04 20:51:56;;;;;;;;;16.20;15.00;;;;;20.61;71.91;99944.22;5076550;28;8859;-70
2022/09/04 20:55:08;;;;;;;;;12.80;12.20;;;;;20.83;70.16;99936.34;5102801;28;8848;-69
2022/09/04 20:58:09;;;;;;;;;15.00;15.00;;;;;20.74;69.90;99937.56;5098002;27;8870;-69
2022/09/04 21:01:04;;;;;;;;;13.40;13.40;;;;;20.85;69.40;99934.53;5061012;28;8904;-70
2022/09/04 21:04:05;;;;;;;;;15.00;14.00;;;;;20.97;68.66;99942.03;5046748;28;8883;-70
2022/09/04 21:06:42;;;;;;;;;14.00;12.60;;;;;21.17;67.87;99945.72;5055234;28;8875;-70
2022/09/04 21:09:24;;;;;;;;;13.40;13.40;;;;;21.27;67.29;99940.94;5060552;28;8865;-71
2022/09/04 21:12:12;;;;;;;;;12.80;12.60;;;;;21.34;66.92;99953.03;5007753;28;9726;-68
2022/09/04 21:14:46;;;;;;;;;13.40;13.20;;;;;21.49;66.28;99954.25;5047629;28;8862;-71
2022/09/04 21:17:42;;;;;;;;;16.60;15.60;;;;;21.55;66.16;99954.91;5040520;28;8882;-72
2022/09/04 21:20:44;;;;;;;;;12.60;12.60;;;;;21.65;66.14;99949.22;4983519;28;8883;-69
2022/09/04 21:23:57;;;;;;;;;11.80;11.80;;;;;21.86;65.02;99956.31;5018372;28;8880;-72
2022/09/04 21:26:51;;;;;;;;;15.00;14.60;;;;;21.96;64.68;99962.13;5017410;28;9016;-70
2022/09/04 21:29:41;;;;;;;;;16.80;16.80;;;;;22.13;64.16;99964.94;5020700;28;8850;-73
2022/09/04 21:32:29;;;;;;;;;16.40;16.40;;;;;22.24;63.38;99967.16;5003021;28;9005;-70
2022/09/04 21:35:10;;;;;;;;;16.00;15.20;;;;;22.32;63.29;99967.72;5002334;28;8845;-72
2022/09/04 21:37:50;;;;;;;;;15.40;15.40;;;;;22.39;62.52;99963.03;5052505;28;8906;-69
2022/09/04 21:40:44;;;;;;;;;17.40;15.40;;;;;22.50;62.38;99967.88;5079433;28;8860;-69
2022/09/04 21:44:01;;;;;;;;;13.20;13.20;;;;;22.55;61.95;99965.88;5079735;28;8943;-69
2022/09/04 21:47:04;;;;;;;;;14.60;14.60;;;;;22.55;61.72;99960.56;4980136;28;8925;-69
2022/09/04 21:50:30;;;;;;;;;16.00;16.00;;;;;22.55;61.67;99960.56;4960428;28;8870;-71
2022/09/04 21:53:26;;;;;;;;;15.80;15.00;;;;;22.54;61.40;99953.53;4902614;28;8882;-79
2022/09/04 21:56:16;;;;;;;;;17.00;15.60;;;;;22.58;61.39;99958.63;4935608;28;8998;-81
2022/09/04 21:59:38;;;;;;;;;13.60;13.00;;;;;22.64;61.13;99957.50;4988183;28;9696;-78
2022/09/04 22:02:33;;;;;;;;;14.20;14.20;;;;;22.67;61.13;99956.53;4967599;28;8879;-78
2022/09/04 22:05:36;;;;;;;;;15.80;14.20;;;;;22.70;60.92;99961.69;4961031;28;8847;-82
2022/09/04 22:08:21;;;;;;;;;10.80;10.80;;;;;22.62;60.82;99958.50;4951682;28;8870;-80
2022/09/04 22:11:23;;;;;;;;;12.20;12.20;;;;;22.54;61.19;99956.19;4949105;28;8920;-81
2022/09/04 22:14:21;;;;;;;;;13.60;13.60;;;;;22.52;61.17;99955.38;4933852;28;9001;-78
2022/09/04 22:17:03;;;;;;;;;13.40;13.40;;;;;22.41;61.64;99962.97;4951526;28;8875;-78
2022/09/04 22:19:56;;;;;;;;;16.00;15.60;;;;;22.35;61.78;99964.94;4928839;29;8908;-78
2022/09/04 22:23:17;;;;;;;;;14.20;13.20;;;;;22.37;61.86;99962.22;4933801;28;8897;-77
2022/09/04 22:26:00;;;;;;;;;15.80;14.60;;;;;22.38;61.63;99959.50;4956527;28;9001;-79
2022/09/04 22:29:11;;;;;;;;;17.40;15.80;;;;;22.44;61.56;99962.81;4929118;29;8917;-78
2022/09/04 22:32:19;;;;;;;;;13.80;12.00;;;;;22.51;61.31;99957.19;4929480;29;8906;-78
2022/09/04 22:35:18;;;;;;;;;15.00;13.40;;;;;22.47;61.45;99962.69;4910256;29;8857;-78
2022/09/04 22:38:26;;;;;;;;;13.40;12.60;;;;;22.35;61.82;99954.31;4909785;29;9020;-77
2022/09/04 22:41:10;;;;;;;;;14.80;14.80;;;;;22.33;61.75;99960.63;4891786;29;8913;-77
2022/09/04 22:43:41;;;;;;;;;14.40;13.60;;;;;22.31;61.90;99965.16;4891558;29;8920;-80
2022/09/04 22:50:18;;;;;;;;;15.80;15.40;;;;;22.41;61.54;99966.47;4815625;29;8891;-78
2022/09/04 22:53:21;;;;;;;;;17.00;16.60;;;;;22.42;61.33;99962.00;4802165;29;8882;-79
2022/09/04 22:55:57;;;;;;;;;14.60;12.80;;;;;22.29;61.94;99962.56;4813885;29;8883;-78
2022/09/04 22:59:10;;;;;;;;;15.40;14.60;;;;;22.34;61.49;99963.22;4818068;29;8890;-78
2022/09/04 23:02:21;;;;;;;;;17.00;16.00;;;;;22.31;61.70;99960.69;4891391;29;8881;-78
2022/09/04 23:05:34;;;;;;;;;15.20;14.80;;;;;22.34;61.64;99967.66;4854110;29;8882;-78
2022/09/04 23:08:21;;;;;;;;;15.00;15.00;;;;;22.28;61.83;99960.81;4854003;29;8878;-77
2022/09/04 23:11:26;;;;;;;;;16.60;15.60;;;;;22.33;61.95;99963.28;4894321;29;8891;-77
2022/09/04 23:14:32;;;;;;;;;23.20;21.00;;;;;22.27;62.21;99956.44;4894437;29;8906;-77
2022/09/04 23:17:28;;;;;;;;;20.80;17.60;;;;;22.32;62.23;99962.41;4916503;29;9010;-79
2022/09/04 23:20:23;;;;;;;;;18.20;18.20;;;;;22.13;62.79;99964.94;4915774;28;8972;-79
2022/09/04 23:23:41;;;;;;;;;16.00;16.00;;;;;22.06;63.09;99957.28;4947747;28;8869;-78
2022/09/04 23:26:57;;;;;;;;;18.20;15.80;;;;;22.00;63.30;99953.97;5041527;28;8880;-77
2022/09/04 23:29:52;;;;;;;;;13.60;13.40;;;;;21.87;63.96;99968.69;4987148;28;8922;-78
2022/09/04 23:32:43;;;;;;;;;16.40;16.40;;;;;21.93;63.80;99954.28;4955984;28;8845;-76
2022/09/04 23:35:44;;;;;;;;;22.20;19.00;;;;;22.02;63.64;99964.50;4973221;28;8834;-77
2022/09/04 23:39:02;;;;;;;;;17.00;16.80;;;;;22.10;63.44;99954.44;4986343;28;8845;-77
2022/09/04 23:42:06;;;;;;;;;16.40;16.00;;;;;22.09;63.29;99963.34;4993041;28;8840;-77
2022/09/04 23:45:22;;;;;;;;;18.80;16.40;;;;;22.09;62.92;99957.16;4978589;28;8870;-77
2022/09/04 23:48:28;;;;;;;;;16.00;15.00;;;;;22.06;62.95;99950.19;5006057;28;8822;-77
2022/09/04 23:51:26;;;;;;;;;14.20;14.20;;;;;21.96;62.95;99957.66;5005963;28;8834;-77
2022/09/04 23:54:42;;;;;;;;;18.00;16.00;;;;;21.96;62.69;99952.34;5014683;28;8856;-77
2022/09/04 23:57:39;;;;;;;;;15.20;13.40;;;;;21.98;62.54;99954.94;5011638;28;8804;-79
